Terminal Aerodrome Forecast
Issued by NWS

Home | Current Version | Previous Version | Text Only | Print | Product List | Glossary On
Versions: 1 2 3 4 5 6 7 8 9 10 11 12 13 14 15 16 17
000
FTUS46 KSEW 280500
TAFBFI
TAF
KBFI 280540Z 2806/2906 VRB03KT 4SM BR BKN006 OVC012
     FM281200 00000KT 3SM BR OVC004
     FM281800 VRB03KT P6SM OVC014
     FM282100 33003KT P6SM BKN045=

USA.gov is the U.S. government's official web portal to all federal, state and local government web resources and services.